Time;durP1;ratioP1;P1;durP2;ratioP2;P2;SDS_P1;SDS_P2;PMS_P1;PMS_P2;Temp;Humidity;BMP_temperature;BMP_pressure;BME280_temperature;BME280_humidity;BME280_pressure;Samples;Min_cycle;Max_cycle;Signal;HPM_P1;HPM_P2
2021/12/15 00:02:19;;;;;;;11.50;10.17;;;;;;;4.20;100.00;97552.81;5008394;28;101964;-64
2021/12/15 00:04:50;;;;;;;13.80;10.67;;;;;;;4.21;100.00;97558.91;5009779;28;103576;-64
2021/12/15 00:07:19;;;;;;;12.50;9.93;;;;;;;4.31;100.00;97556.81;5007859;28;105937;-64
2021/12/15 00:09:47;;;;;;;12.97;10.50;;;;;;;4.18;100.00;97552.19;5009394;28;102036;-64
2021/12/15 00:12:16;;;;;;;12.30;10.47;;;;;;;4.16;100.00;97550.75;5012540;28;102571;-64
2021/12/15 00:14:46;;;;;;;13.70;10.10;;;;;;;4.19;100.00;97555.63;5008519;28;101798;-64
2021/12/15 00:17:15;;;;;;;14.07;10.03;;;;;;;4.28;100.00;97549.28;5009592;28;102625;-64
2021/12/15 00:19:44;;;;;;;12.60;10.53;;;;;;;4.16;100.00;97550.75;5007987;28;105482;-64
2021/12/15 00:22:12;;;;;;;11.43;10.20;;;;;;;4.20;100.00;97552.03;5008018;28;101866;-64
2021/12/15 00:24:42;;;;;;;12.50;10.30;;;;;;;4.32;100.00;97547.91;5008256;28;105475;-64
2021/12/15 00:27:10;;;;;;;11.97;9.93;;;;;;;4.30;100.00;97542.84;5007074;28;105831;-64
2021/12/15 00:29:37;;;;;;;14.07;10.40;;;;;;;4.33;100.00;97531.94;5009275;28;102254;-64
2021/12/15 00:32:06;;;;;;;13.90;10.50;;;;;;;4.21;100.00;97532.59;5008241;28;104062;-64
2021/12/15 00:34:37;;;;;;;12.50;10.13;;;;;;;4.23;100.00;97534.03;5010930;28;105788;-64
2021/12/15 00:37:06;;;;;;;11.70;10.10;;;;;;;4.27;100.00;97532.66;5008002;28;105632;-64
2021/12/15 00:39:34;;;;;;;12.50;10.67;;;;;;;4.30;100.00;97547.25;5007652;28;105744;-64
2021/12/15 00:42:04;;;;;;;12.70;9.93;;;;;;;4.25;100.00;97549.66;5008110;28;102141;-64
2021/12/15 00:44:32;;;;;;;10.77;9.27;;;;;;;4.27;100.00;97553.72;5008894;28;105374;-64
2021/12/15 00:47:01;;;;;;;12.03;10.53;;;;;;;4.27;100.00;97563.44;5009631;28;102710;-64
2021/12/15 00:49:29;;;;;;;11.80;9.77;;;;;;;4.31;100.00;97560.25;5007740;28;101924;-64
2021/12/15 00:51:58;;;;;;;11.40;9.40;;;;;;;4.24;100.00;97558.53;5008888;28;105383;-64
2021/12/15 00:54:26;;;;;;;15.87;10.17;;;;;;;4.23;100.00;97570.06;5008102;28;105917;-64
2021/12/15 00:56:56;;;;;;;12.80;10.00;;;;;;;4.19;100.00;97571.41;5011396;28;101843;-63
2021/12/15 00:59:26;;;;;;;12.77;9.67;;;;;;;4.27;100.00;97574.78;5007292;28;105189;-64
2021/12/15 01:01:56;;;;;;;10.43;9.17;;;;;;;4.31;100.00;97577.88;5007604;28;101885;-64
2021/12/15 01:04:25;;;;;;;10.27;9.17;;;;;;;4.30;100.00;97578.88;5008590;28;105428;-64
2021/12/15 01:06:56;;;;;;;11.00;9.80;;;;;;;4.37;100.00;97579.78;5008130;28;106063;-64
2021/12/15 01:09:30;;;;;;;11.90;9.77;;;;;;;4.41;100.00;97575.78;5008686;28;101929;-64
2021/12/15 01:12:16;;;;;;;10.47;9.23;;;;;;;4.50;100.00;97580.78;5008786;28;105195;-64
2021/12/15 01:20:28;;;;;;;11.33;10.03;;;;;;;4.51;100.00;97589.47;5011304;28;105513;-64
2021/12/15 01:22:59;;;;;;;13.20;9.43;;;;;;;4.48;100.00;97600.41;5007484;28;101785;-64
2021/12/15 01:25:29;;;;;;;10.93;9.83;;;;;;;4.47;100.00;97596.94;5008367;28;104053;-63
2021/12/15 01:27:57;;;;;;;12.77;10.00;;;;;;;4.51;100.00;97602.66;5008510;28;103212;-64
2021/12/15 01:30:29;;;;;;;12.70;9.90;;;;;;;4.48;100.00;97598.56;5007350;28;101890;-64
2021/12/15 01:32:58;;;;;;;11.73;9.80;;;;;;;4.54;100.00;97591.75;5008308;28;104743;-64
2021/12/15 01:35:26;;;;;;;12.13;10.30;;;;;;;4.53;100.00;97600.66;5007818;28;105528;-64
2021/12/15 01:37:55;;;;;;;12.00;10.53;;;;;;;4.52;100.00;97610.38;5007226;28;101909;-64
2021/12/15 01:40:33;;;;;;;12.13;9.90;;;;;;;4.57;100.00;97607.19;5007329;28;105258;-64
2021/12/15 01:43:02;;;;;;;12.47;10.50;;;;;;;4.58;100.00;97595.66;5011140;28;105479;-64
2021/12/15 01:48:18;;;;;;;10.63;9.53;;;;;;;4.58;100.00;97608.84;5007445;28;105576;-64
2021/12/15 01:50:50;;;;;;;12.57;10.23;;;;;;;4.59;100.00;97599.94;5008374;28;102434;-64
2021/12/15 01:53:18;;;;;;;10.97;9.33;;;;;;;4.60;100.00;97598.94;5007319;28;105347;-63
2021/12/15 01:55:47;;;;;;;11.27;9.53;;;;;;;4.58;100.00;97598.31;5007172;28;105403;-64
2021/12/15 01:58:16;;;;;;;10.83;9.60;;;;;;;4.58;100.00;97603.56;5007895;28;101911;-64
2021/12/15 02:00:48;;;;;;;11.43;9.87;;;;;;;4.61;100.00;97608.47;5008092;28;105455;-64
2021/12/15 02:03:16;;;;;;;11.10;9.90;;;;;;;4.60;100.00;97609.47;5007524;28;105525;-64
2021/12/15 02:05:44;;;;;;;13.57;10.50;;;;;;;4.61;100.00;97613.72;5011496;28;102881;-64
2021/12/15 02:08:12;;;;;;;13.07;10.13;;;;;;;4.60;100.00;97607.66;5006417;28;105677;-64
2021/12/15 02:10:42;;;;;;;12.03;10.20;;;;;;;4.61;100.00;97604.03;5006726;28;101898;-64
2021/12/15 02:13:13;;;;;;;12.97;9.93;;;;;;;4.58;100.00;97601.75;5008841;28;105797;-64
2021/12/15 02:15:44;;;;;;;11.50;9.73;;;;;;;4.60;100.00;97601.56;5010794;28;106012;-63
2021/12/15 02:18:19;;;;;;;14.10;11.60;;;;;;;4.67;100.00;97599.81;5011216;28;101868;-64
2021/12/15 02:20:52;;;;;;;13.83;11.17;;;;;;;4.57;100.00;97596.66;5010247;28;105511;-64
2021/12/15 02:23:27;;;;;;;12.30;10.93;;;;;;;4.57;100.00;97591.38;5009468;28;105342;-64
2021/12/15 02:25:56;;;;;;;12.37;10.63;;;;;;;4.52;100.00;97589.31;5013540;28;101842;-63
2021/12/15 02:28:23;;;;;;;12.80;11.27;;;;;;;4.50;100.00;97590.47;5009193;28;105635;-63
2021/12/15 02:30:55;;;;;;;13.37;10.67;;;;;;;4.36;100.00;97586.06;5010079;28;101890;-63
2021/12/15 02:39:14;;;;;;;16.43;11.90;;;;;;;4.21;100.00;97579.97;4933414;28;101979;-64
2021/12/15 02:41:46;;;;;;;13.53;11.17;;;;;;;4.18;100.00;97585.59;4933045;28;105162;-64
2021/12/15 02:44:23;;;;;;;12.80;10.83;;;;;;;4.15;100.00;97576.25;4932961;28;105411;-64
2021/12/15 02:46:53;;;;;;;12.27;10.37;;;;;;;4.18;100.00;97569.78;4933015;28;102112;-64
2021/12/15 02:49:26;;;;;;;13.70;10.93;;;;;;;4.22;100.00;97574.53;4936033;28;106147;-64
2021/12/15 02:51:59;;;;;;;13.63;10.83;;;;;;;4.29;100.00;97578.06;4949736;28;101759;-64
2021/12/15 02:54:27;;;;;;;12.23;10.97;;;;;;;4.31;100.00;97576.06;4932688;28;105351;-64
2021/12/15 02:57:04;;;;;;;12.53;10.87;;;;;;;4.34;100.00;97574.88;4932456;28;105379;-64
2021/12/15 02:59:40;;;;;;;11.00;9.50;;;;;;;4.33;100.00;97575.88;4932979;28;101862;-64
2021/12/15 03:02:19;;;;;;;12.00;10.57;;;;;;;4.41;100.00;97575.78;4933951;28;105420;-64
2021/12/15 03:04:50;;;;;;;12.80;10.17;;;;;;;4.40;100.00;97579.41;4932343;28;105618;-64
2021/12/15 03:07:29;;;;;;;11.47;10.27;;;;;;;4.37;100.00;97585.84;4966147;28;102046;-64
2021/12/15 03:18:10;;;;;;;11.67;10.47;;;;;;;4.55;100.00;97572.31;5005254;28;106386;-64
2021/12/15 03:20:42;;;;;;;11.97;10.77;;;;;;;4.55;100.00;97577.59;5010606;28;101749;-64
2021/12/15 03:23:14;;;;;;;11.67;10.00;;;;;;;4.60;100.00;97577.84;5010398;28;101866;-64
2021/12/15 03:25:42;;;;;;;11.73;9.70;;;;;;;4.65;100.00;97588.66;5008121;28;104309;-64
2021/12/15 03:36:35;;;;;;;11.27;10.17;;;;;;;4.63;100.00;97582.75;5010492;28;102516;-64
2021/12/15 03:39:07;;;;;;;12.97;10.87;;;;;;;4.62;100.00;97578.47;5008551;28;105489;-64
2021/12/15 03:41:34;;;;;;;11.67;9.80;;;;;;;4.50;100.00;97585.22;5009068;28;101783;-64
2021/12/15 03:44:05;;;;;;;13.17;10.77;;;;;;;4.50;100.00;97582.59;5009962;28;105345;-64
2021/12/15 03:46:33;;;;;;;12.57;11.07;;;;;;;4.50;100.00;97579.94;5008181;28;107076;-64
2021/12/15 03:49:01;;;;;;;12.13;10.40;;;;;;;4.48;100.00;97581.97;5008827;28;101929;-64
2021/12/15 03:51:29;;;;;;;13.53;11.67;;;;;;;4.49;100.00;97586.22;5008794;28;104160;-64
2021/12/15 03:53:56;;;;;;;13.63;11.77;;;;;;;4.50;100.00;97591.31;5008193;28;105814;-64
2021/12/15 03:56:27;;;;;;;27.13;13.83;;;;;;;4.42;100.00;97588.75;5008824;28;102505;-64
2021/12/15 03:58:55;;;;;;;22.80;14.07;;;;;;;4.44;100.00;97584.16;5011464;28;105391;-64
2021/12/15 04:01:23;;;;;;;28.17;15.77;;;;;;;4.42;100.00;97583.50;5008691;28;102000;-64
2021/12/15 04:03:54;;;;;;;24.47;16.00;;;;;;;4.42;100.00;97594.03;5008703;28;105375;-64
2021/12/15 04:06:25;;;;;;;26.63;16.20;;;;;;;4.39;100.00;97598.84;5008158;28;105633;-64
2021/12/15 04:08:54;;;;;;;28.83;15.03;;;;;;;4.37;100.00;97595.59;5008354;28;101848;-63
2021/12/15 04:11:24;;;;;;;27.77;15.03;;;;;;;4.41;100.00;97599.47;5008621;28;104091;-64
2021/12/15 04:13:59;;;;;;;31.47;16.00;;;;;;;4.39;100.00;97599.69;5008164;28;105492;-64
2021/12/15 04:16:42;;;;;;;32.50;16.50;;;;;;;4.52;100.00;97606.91;5008497;28;101811;-63
2021/12/15 04:19:14;;;;;;;29.77;16.17;;;;;;;4.50;100.00;97611.56;5009973;28;102517;-63
2021/12/15 04:21:42;;;;;;;32.20;15.80;;;;;;;4.48;100.00;97616.19;5010585;28;101845;-64
2021/12/15 04:24:12;;;;;;;32.60;17.03;;;;;;;4.46;100.00;97619.00;5008379;28;105544;-64
2021/12/15 04:26:40;;;;;;;34.40;17.30;;;;;;;4.52;100.00;97627.97;5007728;28;105671;-64
2021/12/15 04:29:09;;;;;;;39.63;17.13;;;;;;;4.57;100.00;97629.09;5007894;28;101893;-64
2021/12/15 04:31:42;;;;;;;31.47;16.50;;;;;;;4.54;100.00;97631.28;5008361;28;103952;-64
2021/12/15 04:34:12;;;;;;;34.40;17.70;;;;;;;4.57;100.00;97633.53;5007190;28;105835;-64
2021/12/15 04:36:43;;;;;;;39.17;18.77;;;;;;;4.57;100.00;97641.44;5007955;28;102078;-64
2021/12/15 04:39:14;;;;;;;36.70;17.73;;;;;;;4.57;100.00;97637.00;5008227;28;104020;-64
2021/12/15 04:41:46;;;;;;;40.63;20.10;;;;;;;4.67;100.00;97639.34;5010957;28;105359;-63
2021/12/15 04:44:17;;;;;;;40.73;20.37;;;;;;;4.67;100.00;97626.16;5008077;28;105510;-64
2021/12/15 04:46:48;;;;;;;36.77;17.57;;;;;;;4.58;100.00;97627.28;5007661;28;104172;-64
2021/12/15 04:49:19;;;;;;;42.03;19.43;;;;;;;4.57;100.00;97623.00;5007960;28;101809;-64
2021/12/15 04:51:48;;;;;;;41.83;19.27;;;;;;;4.54;100.00;97623.38;5008058;28;105254;-64
2021/12/15 04:54:17;;;;;;;35.93;18.30;;;;;;;4.46;100.00;97619.00;5008743;28;102732;-64
2021/12/15 04:56:44;;;;;;;37.47;17.43;;;;;;;4.43;100.00;97623.81;5007804;28;101898;-64
2021/12/15 04:59:13;;;;;;;36.80;17.10;;;;;;;4.35;100.00;97627.38;5007791;28;105836;-64
2021/12/15 05:01:42;;;;;;;34.13;17.03;;;;;;;4.33;100.00;97625.91;5007259;28;105442;-64
2021/12/15 05:04:10;;;;;;;42.33;17.57;;;;;;;4.32;100.00;97632.97;5011212;28;102043;-64
2021/12/15 05:06:39;;;;;;;36.73;17.03;;;;;;;4.37;100.00;97633.25;5006565;28;105739;-63
2021/12/15 05:09:07;;;;;;;35.60;16.67;;;;;;;4.32;100.00;97629.56;5007819;28;101861;-63
2021/12/15 05:11:44;;;;;;;46.37;18.30;;;;;;;4.44;100.00;97634.19;5009165;28;102795;-63
2021/12/15 05:14:12;;;;;;;34.13;15.70;;;;;;;4.51;100.00;97626.34;5007625;28;105735;-63
2021/12/15 05:16:39;;;;;;;28.70;15.17;;;;;;;4.46;100.00;97626.91;5008012;28;102061;-63
2021/12/15 05:19:08;;;;;;;29.97;15.43;;;;;;;4.44;100.00;97628.91;5007676;28;105246;-63
2021/12/15 05:21:43;;;;;;;25.90;14.63;;;;;;;4.57;100.00;97628.25;5008284;28;103016;-63
2021/12/15 05:24:22;;;;;;;29.90;16.90;;;;;;;4.64;100.00;97634.44;5008045;28;101962;-63
2021/12/15 05:26:50;;;;;;;31.63;15.67;;;;;;;4.61;100.00;97645.34;5010507;28;105346;-62
2021/12/15 05:29:21;;;;;;;29.93;16.10;;;;;;;4.62;100.00;97657.50;5007507;28;101900;-63
2021/12/15 05:31:55;;;;;;;43.27;17.83;;;;;;;4.65;100.00;97665.84;5007728;28;105458;-62
2021/12/15 05:34:25;;;;;;;36.70;17.63;;;;;;;4.58;100.00;97659.69;5007189;28;105456;-63
2021/12/15 05:36:53;;;;;;;38.27;18.20;;;;;;;4.62;100.00;97665.41;5007790;28;101915;-63
2021/12/15 05:39:21;;;;;;;39.50;19.13;;;;;;;4.62;100.00;97668.88;5007698;28;105663;-63
2021/12/15 05:42:02;;;;;;;38.93;17.33;;;;;;;4.62;100.00;97674.16;5006907;28;106812;-62
2021/12/15 05:44:30;;;;;;;43.20;18.40;;;;;;;4.58;100.00;97672.06;5007644;28;101850;-63
2021/12/15 05:47:00;;;;;;;41.70;19.57;;;;;;;4.60;100.00;97675.31;5009111;28;102521;-63
2021/12/15 05:49:30;;;;;;;44.57;19.97;;;;;;;4.64;100.00;97676.59;5014093;28;105570;-64
2021/12/15 05:52:27;;;;;;;42.87;19.83;;;;;;;4.67;100.00;97681.50;5011021;28;104678;-63
2021/12/15 05:55:13;;;;;;;43.43;20.53;;;;;;;4.60;100.00;97689.31;5010281;28;105566;-63
2021/12/15 05:57:41;;;;;;;44.40;21.10;;;;;;;4.55;100.00;97686.41;5010728;28;101870;-63
2021/12/15 06:00:14;;;;;;;46.63;21.80;;;;;;;4.66;100.00;97695.66;5010881;28;105664;-63
2021/12/15 06:03:26;;;;;;;47.57;22.63;;;;;;;4.69;100.00;97700.59;5010257;28;105548;-63
2021/12/15 06:05:56;;;;;;;49.43;21.53;;;;;;;4.69;100.00;97697.97;5007422;28;101936;-63
2021/12/15 06:08:23;;;;;;;56.20;23.67;;;;;;;4.64;100.00;97702.94;4990801;28;105675;-63
2021/12/15 06:11:16;;;;;;;55.23;23.27;;;;;;;4.73;100.00;97710.56;4990208;28;105857;-62
2021/12/15 06:13:47;;;;;;;48.70;22.00;;;;;;;4.70;100.00;97700.38;5027365;28;101780;-62
2021/12/15 06:16:17;;;;;;;51.53;23.20;;;;;;;4.67;100.00;97702.56;4990253;28;105544;-63
2021/12/15 06:18:45;;;;;;;52.43;23.57;;;;;;;4.70;100.00;97707.50;4990568;28;101929;-62
2021/12/15 06:21:47;;;;;;;55.97;22.63;;;;;;;4.70;100.00;97707.50;4990376;28;104927;-62
2021/12/15 06:24:14;;;;;;;50.00;22.17;;;;;;;4.68;100.00;97714.75;4990095;28;106034;-62
2021/12/15 06:26:42;;;;;;;58.40;23.77;;;;;;;4.73;100.00;97713.22;4990500;28;101866;-63
2021/12/15 06:29:10;;;;;;;49.87;23.03;;;;;;;4.73;100.00;97707.94;5003538;28;104272;-62
2021/12/15 06:31:40;;;;;;;51.40;22.20;;;;;;;4.66;100.00;97722.03;4989954;28;103949;-62
2021/12/15 06:34:07;;;;;;;50.20;21.70;;;;;;;4.61;100.00;97721.75;4993774;28;101795;-62
2021/12/15 06:36:37;;;;;;;50.03;22.30;;;;;;;4.53;100.00;97725.28;4989845;28;105376;-62
2021/12/15 06:39:06;;;;;;;45.73;20.87;;;;;;;4.50;100.00;97730.09;5001522;28;101949;-62
2021/12/15 06:41:48;;;;;;;47.60;21.13;;;;;;;4.63;100.00;97735.56;5008242;28;105712;-62
2021/12/15 06:44:16;;;;;;;52.13;21.93;;;;;;;4.68;100.00;97738.44;5006337;28;105550;-62
2021/12/15 06:58:12;;;;;;;55.50;21.83;;;;;;;4.48;100.00;97740.00;4992956;28;104683;-62
2021/12/15 07:00:56;;;;;;;51.00;21.33;;;;;;;4.48;100.00;97750.53;4996465;28;101744;-63
2021/12/15 07:03:24;;;;;;;50.73;20.77;;;;;;;4.42;100.00;97745.97;5009810;28;105370;-62
2021/12/15 07:05:52;;;;;;;48.23;19.90;;;;;;;4.42;100.00;97746.78;5009280;28;105504;-62
2021/12/15 07:08:20;;;;;;;50.83;20.13;;;;;;;4.52;100.00;97747.34;5009860;28;101938;-63
2021/12/15 07:10:54;;;;;;;46.93;20.33;;;;;;;4.57;100.00;97749.44;5009661;28;105700;-63
2021/12/15 07:13:23;;;;;;;50.40;20.27;;;;;;;4.60;100.00;97754.34;5009326;28;105697;-63
2021/12/15 07:15:59;;;;;;;46.27;19.33;;;;;;;4.54;100.00;97749.81;5009559;28;101958;-63
2021/12/15 07:18:37;;;;;;;54.27;20.43;;;;;;;4.53;100.00;97754.25;5009649;28;105818;-64
2021/12/15 07:21:21;;;;;;;51.30;20.73;;;;;;;4.56;100.00;97748.63;5012405;28;105663;-63
2021/12/15 07:23:51;;;;;;;48.87;19.03;;;;;;;4.56;100.00;97743.38;5009734;28;105542;-63
2021/12/15 07:26:55;;;;;;;46.33;19.17;;;;;;;4.63;100.00;97748.75;5009153;28;105398;-64
2021/12/15 07:29:22;;;;;;;44.63;18.87;;;;;;;4.59;100.00;97758.00;5009310;28;101943;-64
2021/12/15 07:31:56;;;;;;;46.57;19.07;;;;;;;4.61;100.00;97756.00;5009433;28;105783;-64
2021/12/15 07:34:34;;;;;;;47.53;19.73;;;;;;;4.70;100.00;97763.63;5009291;28;104783;-63
2021/12/15 07:37:07;;;;;;;44.33;19.57;;;;;;;4.70;100.00;97762.81;5009411;28;101860;-63
2021/12/15 07:39:43;;;;;;;44.93;19.33;;;;;;;4.72;100.00;97764.28;5009481;28;105020;-63
2021/12/15 07:42:30;;;;;;;46.73;19.37;;;;;;;4.67;100.00;97765.81;5008680;28;105796;-67
2021/12/15 07:45:05;;;;;;;46.47;18.33;;;;;;;4.79;100.00;97774.91;5009951;28;102074;-63
2021/12/15 07:47:37;;;;;;;42.30;18.43;;;;;;;4.82;100.00;97780.66;5008997;28;105158;-63
2021/12/15 07:50:12;;;;;;;47.47;19.90;;;;;;;4.73;100.00;97773.81;5009428;28;101760;-63
2021/12/15 07:52:45;;;;;;;43.77;18.77;;;;;;;4.75;100.00;97778.91;5009283;28;102640;-63
2021/12/15 07:55:22;;;;;;;40.93;17.90;;;;;;;4.71;100.00;97781.09;5005433;28;105041;-62
2021/12/15 07:57:52;;;;;;;46.93;18.90;;;;;;;4.86;100.00;97786.38;5009735;28;101873;-62
2021/12/15 08:00:26;;;;;;;50.33;19.13;;;;;;;4.91;100.00;97784.03;5006990;28;105705;-62
2021/12/15 08:03:02;;;;;;;44.97;18.53;;;;;;;4.96;100.00;97790.38;5007531;28;103086;-62
2021/12/15 08:05:30;;;;;;;47.50;17.80;;;;;;;4.94;100.00;97795.00;5008618;28;102602;-63
2021/12/15 08:08:00;;;;;;;50.17;19.00;;;;;;;4.93;100.00;97782.00;5011623;28;105689;-62
2021/12/15 08:10:28;;;;;;;45.10;18.33;;;;;;;5.05;100.00;97788.47;5008107;28;101939;-63
2021/12/15 08:12:57;;;;;;;52.13;19.67;;;;;;;4.96;100.00;97786.94;5008911;28;102974;-63
2021/12/15 08:15:26;;;;;;;49.87;19.93;;;;;;;4.85;100.00;97795.28;5008325;28;105667;-62
2021/12/15 08:17:54;;;;;;;51.63;20.33;;;;;;;4.87;100.00;97794.09;5008895;28;101945;-62
2021/12/15 08:20:25;;;;;;;50.83;19.90;;;;;;;4.99;100.00;97792.66;5010134;28;102532;-63
2021/12/15 08:23:24;;;;;;;53.77;20.47;;;;;;;5.08;100.00;97791.53;5009696;28;103255;-63
2021/12/15 08:25:54;;;;;;;55.13;20.40;;;;;;;5.19;100.00;97800.84;5008879;28;102009;-63
2021/12/15 08:28:23;;;;;;;51.20;20.07;;;;;;;5.25;100.00;97794.81;5008289;28;105697;-63
2021/12/15 08:30:59;;;;;;;50.67;21.53;;;;;;;5.17;100.00;97800.19;5012661;28;103320;-63
2021/12/15 08:33:28;;;;;;;51.97;20.47;;;;;;;5.07;100.00;97797.03;5008651;28;104013;-61
2021/12/15 08:36:01;;;;;;;54.07;22.23;;;;;;;5.12;100.00;97798.09;5009559;28;102844;-62
2021/12/15 08:38:32;;;;;;;54.40;22.43;;;;;;;5.10;100.00;97800.13;5008592;28;101895;-63
2021/12/15 08:41:04;;;;;;;53.20;20.83;;;;;;;5.07;100.00;97800.47;5008386;28;105493;-62
2021/12/15 08:43:33;;;;;;;48.67;19.27;;;;;;;5.11;100.00;97800.91;5007966;28;105660;-63
2021/12/15 08:46:04;;;;;;;50.67;20.40;;;;;;;5.14;100.00;97805.84;5008547;28;101826;-63
2021/12/15 08:48:33;;;;;;;51.63;20.50;;;;;;;5.09;100.00;97809.03;5008435;28;104213;-62
2021/12/15 08:51:05;;;;;;;48.50;20.03;;;;;;;5.16;100.00;97809.94;5011028;28;105516;-62
2021/12/15 08:53:33;;;;;;;43.53;18.67;;;;;;;5.06;100.00;97803.28;5008237;28;105141;-63
2021/12/15 08:56:15;;;;;;;51.03;19.67;;;;;;;5.02;100.00;97812.56;5007646;28;105812;-63
2021/12/15 08:58:45;;;;;;;51.50;20.93;;;;;;;5.02;100.00;97815.19;5008043;28;102095;-63
2021/12/15 09:01:16;;;;;;;52.27;20.70;;;;;;;5.01;100.00;97816.19;5008051;28;105281;-63
2021/12/15 09:03:44;;;;;;;44.83;19.73;;;;;;;5.11;100.00;97816.72;5007512;28;104388;-63
2021/12/15 09:06:12;;;;;;;43.67;19.57;;;;;;;5.18;100.00;97807.91;5008139;28;101879;-63
2021/12/15 09:08:41;;;;;;;42.27;18.07;;;;;;;5.16;100.00;97811.72;5008032;28;105637;-64
2021/12/15 09:11:13;;;;;;;44.93;20.13;;;;;;;5.11;100.00;97819.38;5007349;28;104476;-64
2021/12/15 09:13:42;;;;;;;42.03;18.30;;;;;;;5.08;100.00;97811.84;5011335;28;101862;-64
2021/12/15 09:16:13;;;;;;;44.10;19.87;;;;;;;5.14;100.00;97806.63;5007492;28;105708;-64
2021/12/15 09:18:42;;;;;;;43.93;18.33;;;;;;;5.26;100.00;97809.66;5007915;28;101808;-64
2021/12/15 09:21:33;;;;;;;41.73;19.33;;;;;;;5.31;100.00;97813.38;5007839;28;106340;-63
2021/12/15 09:24:03;;;;;;;43.90;18.57;;;;;;;5.34;100.00;97809.56;5010536;28;103880;-63
2021/12/15 09:26:45;;;;;;;41.83;18.93;;;;;;;5.32;100.00;97814.19;5007853;28;101877;-63
2021/12/15 09:29:15;;;;;;;36.07;18.03;;;;;;;5.29;100.00;97817.22;4992727;28;102591;-62
2021/12/15 09:31:47;;;;;;;39.37;18.83;;;;;;;5.22;100.00;97821.56;4990706;28;104948;-63
2021/12/15 09:34:24;;;;;;;37.63;17.87;;;;;;;5.07;100.00;97820.75;4991458;28;102108;-63
2021/12/15 09:36:54;;;;;;;36.23;17.37;;;;;;;5.09;100.00;97830.13;5001524;28;105031;-63
2021/12/15 09:39:24;;;;;;;37.70;18.17;;;;;;;5.19;100.00;97833.28;5010262;28;102294;-62
2021/12/15 09:42:05;;;;;;;36.93;18.37;;;;;;;5.22;100.00;97827.66;5012068;28;102890;-63
2021/12/15 09:44:33;;;;;;;31.63;16.13;;;;;;;5.17;100.00;97826.56;5008617;28;105663;-62
2021/12/15 10:05:09;;;;;;;33.73;16.40;;;;;;;5.37;100.00;97811.81;4990882;28;104770;-64
2021/12/15 10:10:45;;;;;;;30.77;16.33;;;;;;;5.62;100.00;97810.53;4990846;28;101843;-63
2021/12/15 10:18:56;;;;;;;41.57;18.40;;;;;;;5.22;100.00;97798.66;5001847;28;101822;-62
2021/12/15 10:21:27;;;;;;;39.47;17.97;;;;;;;5.11;100.00;97791.19;5008805;28;105687;-62
2021/12/15 10:23:55;;;;;;;38.00;18.70;;;;;;;5.26;100.00;97794.66;5007113;28;104903;-64
2021/12/15 10:26:23;;;;;;;45.17;20.03;;;;;;;5.24;100.00;97793.19;5014794;28;101832;-65
2021/12/15 10:28:52;;;;;;;48.17;21.60;;;;;;;5.03;100.00;97793.09;5009532;28;105956;-64
2021/12/15 10:31:24;;;;;;;45.40;20.67;;;;;;;5.07;100.00;97794.38;5009947;28;102216;-63
2021/12/15 10:33:56;;;;;;;41.60;19.67;;;;;;;5.13;100.00;97793.66;5009984;28;104877;-63
2021/12/15 10:36:29;;;;;;;50.13;20.97;;;;;;;5.22;100.00;97787.28;5010187;28;105902;-64
2021/12/15 10:39:00;;;;;;;45.43;20.40;;;;;;;5.33;100.00;97792.06;5010364;28;101794;-63
2021/12/15 10:41:31;;;;;;;42.73;20.53;;;;;;;5.39;100.00;97789.53;5011902;28;102412;-62
2021/12/15 10:44:01;;;;;;;37.97;19.00;;;;;;;5.40;100.00;97793.00;5009763;28;105781;-63
2021/12/15 10:46:32;;;;;;;34.80;17.90;;;;;;;5.40;100.00;97785.09;5010258;28;101857;-64
2021/12/15 10:49:03;;;;;;;39.30;19.03;;;;;;;5.50;100.00;97786.44;5013062;28;105233;-64
2021/12/15 10:51:37;;;;;;;43.13;21.33;;;;;;;5.62;100.00;97773.59;5010328;28;101761;-64
2021/12/15 10:54:20;;;;;;;42.00;20.03;;;;;;;5.72;100.00;97779.38;5011250;28;101895;-64
2021/12/15 10:56:53;;;;;;;37.63;17.83;;;;;;;5.62;100.00;97778.88;5009660;28;105368;-64
2021/12/15 10:59:25;;;;;;;21.20;12.83;;;;;;;5.62;100.00;97781.50;5010066;28;101996;-63
2021/12/15 11:01:57;;;;;;;24.40;13.97;;;;;;;5.68;100.00;97775.47;5011024;28;104297;-63
2021/12/15 11:04:42;;;;;;;23.13;12.73;;;;;;;5.69;100.00;97774.47;5005422;28;105408;-63
2021/12/15 11:07:31;;;;;;;25.07;14.33;;;;;;;5.70;100.00;97776.09;5008200;28;102229;-63
2021/12/15 11:10:02;;;;;;;26.30;14.27;;;;;;;5.70;100.00;97773.47;5003135;28;104863;-63
2021/12/15 11:12:33;;;;;;;24.00;13.10;;;;;;;5.66;100.00;97778.28;5009225;28;102086;-63
2021/12/15 11:15:08;;;;;;;24.87;14.07;;;;;;;5.70;100.00;97776.09;5029853;27;105858;-63
2021/12/15 11:17:39;;;;;;;47.07;24.80;;;;;;;5.56;100.00;97777.75;5009037;28;104447;-62
2021/12/15 11:20:17;;;;;;;41.50;21.13;;;;;;;5.67;100.00;97776.50;5011268;28;101673;-62
2021/12/15 11:22:57;;;;;;;35.17;19.80;;;;;;;5.77;100.00;97780.44;5009510;28;104905;-62
2021/12/15 11:26:15;;;;;;;34.97;18.33;;;;;;;5.75;100.00;97766.63;5008994;28;104223;-62
2021/12/15 11:28:45;;;;;;;35.13;18.97;;;;;;;5.91;100.00;97763.78;5009105;28;101965;-64
2021/12/15 11:31:16;;;;;;;28.87;15.80;;;;;;;5.90;100.00;97763.97;5009257;28;105165;-64
2021/12/15 11:33:45;;;;;;;27.00;14.03;;;;;;;5.92;100.00;97759.31;5012391;28;105527;-65
2021/12/15 11:36:22;;;;;;;26.60;15.60;;;;;;;5.82;100.00;97762.25;5010679;28;102378;-64
2021/12/15 11:38:52;;;;;;;15.70;10.40;;;;;;;5.83;100.00;97752.53;5010265;28;103061;-64
2021/12/15 11:41:22;;;;;;;10.00;8.27;;;;;;;5.79;100.00;97744.13;5009362;28;102045;-63
2021/12/15 11:43:53;;;;;;;10.13;7.57;;;;;;;5.98;100.00;97753.28;5010371;28;105790;-65
2021/12/15 11:46:28;;;;;;;9.43;7.23;;;;;;;5.98;100.00;97748.00;5008780;28;105212;-64
2021/12/15 11:48:59;;;;;;;10.50;7.93;;;;;;;5.90;100.00;97743.66;5010455;28;101903;-64
2021/12/15 11:51:38;;;;;;;14.27;9.10;;;;;;;5.94;100.00;97749.41;5010323;28;105123;-64
2021/12/15 11:54:17;;;;;;;12.37;9.17;;;;;;;5.98;100.00;97748.00;5009337;28;105603;-65
2021/12/15 11:56:45;;;;;;;11.70;9.23;;;;;;;5.96;100.00;97750.00;5015176;28;101746;-65
2021/12/15 11:59:37;;;;;;;11.97;9.40;;;;;;;5.88;100.00;97736.91;5009484;28;104075;-63
2021/12/15 12:02:07;;;;;;;11.97;9.13;;;;;;;5.80;100.00;97744.97;5010299;28;101791;-62
2021/12/15 12:04:47;;;;;;;13.70;8.90;;;;;;;5.87;100.00;97736.13;5043721;27;105248;-62
2021/12/15 12:07:29;;;;;;;10.40;8.00;;;;;;;5.99;100.00;97728.50;5009198;28;105881;-64
2021/12/15 12:10:01;;;;;;;13.20;9.37;;;;;;;6.01;100.00;97721.22;5010131;28;102149;-63
2021/12/15 12:12:34;;;;;;;12.47;8.90;;;;;;;6.11;100.00;97724.38;5011439;28;102696;-63
2021/12/15 12:18:26;;;;;;;12.57;8.87;;;;;;;6.04;100.00;97710.25;4989821;28;101893;-63
2021/12/15 12:20:57;;;;;;;11.50;8.07;;;;;;;6.00;100.00;97709.03;4992437;28;105420;-62
2021/12/15 12:23:28;;;;;;;9.90;8.20;;;;;;;5.99;100.00;97710.00;5023353;28;101893;-63
2021/12/15 12:26:11;;;;;;;10.00;7.47;;;;;;;6.01;100.00;97706.19;5023010;28;105061;-62
2021/12/15 12:28:41;;;;;;;12.67;9.17;;;;;;;6.14;100.00;97710.75;5001295;28;104510;-62
2021/12/15 12:31:12;;;;;;;10.53;8.07;;;;;;;6.19;100.00;97706.56;5003728;28;101836;-62
2021/12/15 12:33:40;;;;;;;12.37;8.50;;;;;;;6.17;100.00;97705.13;4991047;28;102908;-63
2021/12/15 12:36:15;;;;;;;10.50;7.93;;;;;;;6.12;100.00;97707.50;4989457;28;104009;-62
2021/12/15 12:38:50;;;;;;;11.97;8.73;;;;;;;6.09;100.00;97707.88;4973222;28;101942;-62
2021/12/15 12:41:22;;;;;;;12.17;8.63;;;;;;;6.07;100.00;97701.97;4989733;28;104367;-63
2021/12/15 12:43:52;;;;;;;11.77;8.97;;;;;;;6.21;100.00;97703.75;4992354;28;105521;-63
2021/12/15 12:46:26;;;;;;;11.53;8.60;;;;;;;6.20;100.00;97702.06;5004325;28;104958;-63
2021/12/15 12:49:20;;;;;;;11.13;8.57;;;;;;;6.17;100.00;97695.34;4988816;28;105764;-63